MSC Gina — 3FLY9 — position and weather

sailwx.info

Track history (hours):
 
Tides and Currents Weather Stations Pressure Air Temp Water Temp Dewpoint Dewpoint Depression Visibility Wind Speed Wind Dir Waves Ship Positions

MSC Gina

Last reported at 2014-Dec-17 21:26 UTC. Time now 2014-Dec-18 14:26 UTC.
Position N 38°25' W 011°37'.

Length 259 m; draft 10.6 m.

Type: Ship (hazmat cat A). MMSI: 357542000.

Date/timePositionNaut miles runAvg speedWind from/ knotsBaromVisibWave heightAir tempDewpointWater temp
2014-Dec-17 21:26N 38°25' W 011°37'1517.0
2014-Dec-17 20:33N 38°22' W 011°18'1716.9
2014-Dec-17 19:33N 38°18' W 010°57'1716.6
2014-Dec-17 18:32N 38°14' W 010°36'2216.7
2014-Dec-17 17:13N 38°08' W 010°09'1616.4
2014-Dec-17 16:16N 38°04' W 009°50'1216.3
2014-Dec-17 15:33N 38°02' W 009°35'1616.5
2014-Dec-17 14:33N 37°58' W 009°15'1717.1
2014-Dec-17 13:33N 37°54' W 008°54'3 2.9
2014-Dec-17 12:32N 37°56' W 008°51'0 0.0
2014-Dec-17 11:32N 37°56' W 008°51'0 0.0
2014-Dec-17 10:32N 37°56' W 008°51'0 0.0
2014-Dec-17 09:32N 37°56' W 008°51'0 0.0
2014-Dec-17 08:32N 37°56' W 008°51'0 0.0
2014-Dec-17 07:32N 37°56' W 008°51'0 0.0
2014-Dec-17 06:32N 37°56' W 008°51'0 0.0
2014-Dec-17 05:32N 37°56' W 008°51'0 0.1
2014-Dec-17 04:33N 37°56' W 008°51'5 5.3
2014-Dec-17 03:33N 37°51' W 008°53'9 9.4
2014-Dec-17 02:33N 37°43' W 008°59'1413.6
2014-Dec-17 01:33N 37°31' W 009°07'19311.9
2014-Dec-16 09:16N 35°58' W 005°36'1114.8
2014-Dec-16 08:30N 36°01' W 005°23'21117.7
2014-Dec-15 20:33N 37°07' W 001°13'2120.9
2014-Dec-15 19:33N 37°20' W 000°53'4820.5
2014-Dec-15 17:14N 37°57' W 000°14'8516.6
2014-Dec-15 12:05N 39°22' W 000°09'816.0
2014-Dec-15 11:34N 39°26' W 000°19'1 0.6
2014-Dec-15 10:24N 39°26' W 000°20'0 0.0
2014-Dec-15 09:12N 39°26' W 000°20'0 0.0
2014-Dec-15 08:27N 39°26' W 000°20'0 0.0
2014-Dec-15 07:27N 39°26' W 000°20'0 0.0
2014-Dec-15 06:30N 39°26' W 000°20'0 0.0
2014-Dec-15 05:30N 39°26' W 000°20'0 0.0
2014-Dec-15 04:33N 39°26' W 000°20'0 0.0
2014-Dec-15 03:33N 39°26' W 000°20'0 0.0
2014-Dec-15 02:33N 39°26' W 000°20'0 0.0
2014-Dec-15 01:33N 39°26' W 000°20'0 0.0
2014-Dec-15 00:33N 39°26' W 000°20'0 0.0
2014-Dec-14 23:33N 39°26' W 000°20'0 0.0
2014-Dec-14 22:30N 39°26' W 000°20'0 0.0
2014-Dec-14 21:33N 39°26' W 000°20'0 0.0
2014-Dec-14 20:33N 39°26' W 000°20'0 0.0
2014-Dec-14 19:30N 39°26' W 000°20'0 0.0
2014-Dec-14 18:28N 39°26' W 000°20'3 3.2
2014-Dec-14 17:33N 39°25' W 000°16'3 3.4
2014-Dec-14 16:33N 39°26' W 000°12'4614.1
2014-Dec-14 13:17N 39°39' E 000°46'1216.1
2014-Dec-14 12:32N 39°46' E 000°59'1615.9
2014-Dec-14 11:33N 39°55' E 001°16'1615.8
2014-Dec-14 10:33N 40°03' E 001°33'1616.2
2014-Dec-14 09:32N 40°12' E 001°51'1717.5
2014-Dec-14 08:33N 40°21' E 002°10'1817.7
2014-Dec-14 07:33N 40°31' E 002°30'1818.1
2014-Dec-14 06:33N 40°41' E 002°50'2019.6
2014-Dec-14 05:33N 40°51' E 003°11'1919.0
2014-Dec-14 04:33N 41°01' E 003°33'10118.6
2014-Dec-13 23:08N 41°56' E 005°26'7119.0
2014-Dec-13 19:25N 42°34' E 006°46'1618.5
2014-Dec-13 18:34N 42°43' E 007°05'1918.9
2014-Dec-13 17:33N 42°53' E 007°26'6119.0
2014-Dec-13 14:21N 43°26' E 008°37'1519.2
2014-Dec-13 13:33N 43°34' E 008°54'1919.1
2014-Dec-13 12:33N 43°45' E 009°16'1919.2
2014-Dec-13 11:33N 43°56' E 009°38'1313.2
2014-Dec-13 10:34N 44°05' E 009°51'1 1.4
2014-Dec-13 09:33N 44°06' E 009°51'0 0.0
2014-Dec-13 08:33N 44°06' E 009°51'0 0.0
2014-Dec-13 07:33N 44°06' E 009°51'0 0.0
2014-Dec-13 06:33N 44°06' E 009°51'0 0.0
2014-Dec-13 05:33N 44°06' E 009°51'0 0.0
2014-Dec-13 04:33N 44°06' E 009°51'0 0.0
2014-Dec-13 03:33N 44°06' E 009°51'0 0.0
2014-Dec-13 02:33N 44°06' E 009°51'0 0.0
2014-Dec-13 01:33N 44°06' E 009°51'0 0.0
2014-Dec-13 00:33N 44°06' E 009°51'0 0.0
2014-Dec-12 23:33N 44°06' E 009°51'0 0.0
2014-Dec-12 22:33N 44°06' E 009°51'0 0.0
2014-Dec-12 21:33N 44°06' E 009°51'0 0.0
2014-Dec-12 20:33N 44°06' E 009°51'0 0.0
2014-Dec-12 19:33N 44°06' E 009°51'0 0.0
2014-Dec-12 18:33N 44°06' E 009°51'0 0.0
2014-Dec-12 17:33N 44°06' E 009°51'0 0.0
2014-Dec-12 16:33N 44°06' E 009°51'0 0.0
2014-Dec-12 15:33N 44°06' E 009°51'0 0.0
2014-Dec-12 14:30N 44°06' E 009°51'0 0.0
2014-Dec-12 13:33N 44°06' E 009°51'0 0.0
2014-Dec-12 12:33N 44°06' E 009°51'0 0.0
2014-Dec-12 11:33N 44°06' E 009°51'0 0.0
2014-Dec-12 10:33N 44°06' E 009°51'0 0.0
2014-Dec-12 09:33N 44°06' E 009°51'0 0.0
2014-Dec-12 08:33N 44°06' E 009°51'0 0.0
2014-Dec-12 07:33N 44°06' E 009°51'0 0.0
2014-Dec-12 06:33N 44°06' E 009°51'5 4.6
2014-Dec-12 05:33N 44°02' E 009°54'4 4.0
2014-Dec-12 04:32N 43°59' E 009°51'0 0.1
2014-Dec-12 03:32N 43°59' E 009°51'0 0.0
2014-Dec-12 02:32N 43°59' E 009°51'0 0.0
2014-Dec-12 01:32N 43°59' E 009°51'0 0.0
2014-Dec-12 00:32N 43°59' E 009°51'0 0.0
2014-Dec-11 23:32N 43°59' E 009°51'0 0.0
2014-Dec-11 22:32N 43°59' E 009°51'0 0.0
2014-Dec-11 21:32N 43°59' E 009°51'0 0.0
2014-Dec-11 20:32N 43°59' E 009°51'0 0.0
2014-Dec-11 19:32N 43°59' E 009°51'0 0.1
2014-Dec-11 18:32N 43°59' E 009°51'0 0.0
2014-Dec-11 17:32N 43°59' E 009°51'0 0.1
2014-Dec-11 16:32N 43°59' E 009°51'1 1.4
2014-Dec-11 15:33N 43°58' E 009°51'9 9.0
2014-Dec-11 14:33N 43°49' E 009°51'1010.3
2014-Dec-11 13:33N 43°39' E 009°46'1010.3
2014-Dec-11 12:33N 43°29' E 009°44'1010.2
2014-Dec-11 11:33N 43°19' E 009°42'1010.3
2014-Dec-11 10:33N 43°08' E 009°41'  
2014-Dec-08 09:33N 38°25' E 015°35'1211.9
2014-Dec-08 08:33N 38°22' E 015°21'1312.5
2014-Dec-08 07:31N 38°20' E 015°04'4113.6
2014-Dec-08 04:32N 38°20' E 014°13'1414.0
2014-Dec-08 03:33N 38°20' E 013°55'1414.3
2014-Dec-08 02:34N 38°20' E 013°37'1414.0
2014-Dec-08 01:33N 38°20' E 013°19'1414.0
2014-Dec-08 00:33N 38°20' E 013°01'1414.5
2014-Dec-07 23:33N 38°20' E 012°43'  
Track history (hours):
 
Tides and Currents Weather Stations Pressure Air Temp Water Temp Dewpoint Dewpoint Depression Visibility Wind Speed Wind Dir Waves Ship Positions

MSC Gina

Last reported at 2014-Dec-17 21:26 UTC. Time now 2014-Dec-18 14:26 UTC.
Position N 38°25' W 011°37'.

Length 259 m; draft 10.6 m.

Type: Ship (hazmat cat A). MMSI: 357542000.

Date/timePositionNaut miles runAvg speedWind from/ knotsBaromVisibWave heightAir tempDewpointWater temp
2014-Dec-17 21:26N 38°25' W 011°37'1517.0
2014-Dec-17 20:33N 38°22' W 011°18'1716.9
2014-Dec-17 19:33N 38°18' W 010°57'1716.6
2014-Dec-17 18:32N 38°14' W 010°36'2216.7
2014-Dec-17 17:13N 38°08' W 010°09'1616.4
2014-Dec-17 16:16N 38°04' W 009°50'1216.3
2014-Dec-17 15:33N 38°02' W 009°35'1616.5
2014-Dec-17 14:33N 37°58' W 009°15'1717.1
2014-Dec-17 13:33N 37°54' W 008°54'3 2.9
2014-Dec-17 12:32N 37°56' W 008°51'0 0.0
2014-Dec-17 11:32N 37°56' W 008°51'0 0.0
2014-Dec-17 10:32N 37°56' W 008°51'0 0.0
2014-Dec-17 09:32N 37°56' W 008°51'0 0.0
2014-Dec-17 08:32N 37°56' W 008°51'0 0.0
2014-Dec-17 07:32N 37°56' W 008°51'0 0.0
2014-Dec-17 06:32N 37°56' W 008°51'0 0.0
2014-Dec-17 05:32N 37°56' W 008°51'0 0.1
2014-Dec-17 04:33N 37°56' W 008°51'5 5.3
2014-Dec-17 03:33N 37°51' W 008°53'9 9.4
2014-Dec-17 02:33N 37°43' W 008°59'1413.6
2014-Dec-17 01:33N 37°31' W 009°07'19311.9
2014-Dec-16 09:16N 35°58' W 005°36'1114.8
2014-Dec-16 08:30N 36°01' W 005°23'21117.7
2014-Dec-15 20:33N 37°07' W 001°13'2120.9
2014-Dec-15 19:33N 37°20' W 000°53'4820.5
2014-Dec-15 17:14N 37°57' W 000°14'8516.6
2014-Dec-15 12:05N 39°22' W 000°09'816.0
2014-Dec-15 11:34N 39°26' W 000°19'1 0.6
2014-Dec-15 10:24N 39°26' W 000°20'0 0.0
2014-Dec-15 09:12N 39°26' W 000°20'0 0.0
2014-Dec-15 08:27N 39°26' W 000°20'0 0.0
2014-Dec-15 07:27N 39°26' W 000°20'0 0.0
2014-Dec-15 06:30N 39°26' W 000°20'0 0.0
2014-Dec-15 05:30N 39°26' W 000°20'0 0.0
2014-Dec-15 04:33N 39°26' W 000°20'0 0.0
2014-Dec-15 03:33N 39°26' W 000°20'0 0.0
2014-Dec-15 02:33N 39°26' W 000°20'0 0.0
2014-Dec-15 01:33N 39°26' W 000°20'0 0.0
2014-Dec-15 00:33N 39°26' W 000°20'0 0.0
2014-Dec-14 23:33N 39°26' W 000°20'0 0.0
2014-Dec-14 22:30N 39°26' W 000°20'0 0.0
2014-Dec-14 21:33N 39°26' W 000°20'0 0.0
2014-Dec-14 20:33N 39°26' W 000°20'0 0.0
2014-Dec-14 19:30N 39°26' W 000°20'0 0.0
2014-Dec-14 18:28N 39°26' W 000°20'3 3.2
2014-Dec-14 17:33N 39°25' W 000°16'3 3.4
2014-Dec-14 16:33N 39°26' W 000°12'4614.1
2014-Dec-14 13:17N 39°39' E 000°46'1216.1
2014-Dec-14 12:32N 39°46' E 000°59'1615.9
2014-Dec-14 11:33N 39°55' E 001°16'1615.8
2014-Dec-14 10:33N 40°03' E 001°33'1616.2
2014-Dec-14 09:32N 40°12' E 001°51'1717.5
2014-Dec-14 08:33N 40°21' E 002°10'1817.7
2014-Dec-14 07:33N 40°31' E 002°30'1818.1
2014-Dec-14 06:33N 40°41' E 002°50'2019.6
2014-Dec-14 05:33N 40°51' E 003°11'1919.0
2014-Dec-14 04:33N 41°01' E 003°33'10118.6
2014-Dec-13 23:08N 41°56' E 005°26'7119.0
2014-Dec-13 19:25N 42°34' E 006°46'1618.5
2014-Dec-13 18:34N 42°43' E 007°05'1918.9
2014-Dec-13 17:33N 42°53' E 007°26'6119.0
2014-Dec-13 14:21N 43°26' E 008°37'1519.2
2014-Dec-13 13:33N 43°34' E 008°54'1919.1
2014-Dec-13 12:33N 43°45' E 009°16'1919.2
2014-Dec-13 11:33N 43°56' E 009°38'1313.2
2014-Dec-13 10:34N 44°05' E 009°51'1 1.4
2014-Dec-13 09:33N 44°06' E 009°51'0 0.0
2014-Dec-13 08:33N 44°06' E 009°51'0 0.0
2014-Dec-13 07:33N 44°06' E 009°51'0 0.0
2014-Dec-13 06:33N 44°06' E 009°51'0 0.0
2014-Dec-13 05:33N 44°06' E 009°51'0 0.0
2014-Dec-13 04:33N 44°06' E 009°51'0 0.0
2014-Dec-13 03:33N 44°06' E 009°51'0 0.0
2014-Dec-13 02:33N 44°06' E 009°51'0 0.0
2014-Dec-13 01:33N 44°06' E 009°51'0 0.0
2014-Dec-13 00:33N 44°06' E 009°51'0 0.0
2014-Dec-12 23:33N 44°06' E 009°51'0 0.0
2014-Dec-12 22:33N 44°06' E 009°51'0 0.0
2014-Dec-12 21:33N 44°06' E 009°51'0 0.0
2014-Dec-12 20:33N 44°06' E 009°51'0 0.0
2014-Dec-12 19:33N 44°06' E 009°51'0 0.0
2014-Dec-12 18:33N 44°06' E 009°51'0 0.0
2014-Dec-12 17:33N 44°06' E 009°51'0 0.0
2014-Dec-12 16:33N 44°06' E 009°51'0 0.0
2014-Dec-12 15:33N 44°06' E 009°51'0 0.0
2014-Dec-12 14:30N 44°06' E 009°51'0 0.0
2014-Dec-12 13:33N 44°06' E 009°51'0 0.0
2014-Dec-12 12:33N 44°06' E 009°51'0 0.0
2014-Dec-12 11:33N 44°06' E 009°51'0 0.0
2014-Dec-12 10:33N 44°06' E 009°51'0 0.0
2014-Dec-12 09:33N 44°06' E 009°51'0 0.0
2014-Dec-12 08:33N 44°06' E 009°51'0 0.0
2014-Dec-12 07:33N 44°06' E 009°51'0 0.0
2014-Dec-12 06:33N 44°06' E 009°51'5 4.6
2014-Dec-12 05:33N 44°02' E 009°54'4 4.0
2014-Dec-12 04:32N 43°59' E 009°51'0 0.1
2014-Dec-12 03:32N 43°59' E 009°51'0 0.0
2014-Dec-12 02:32N 43°59' E 009°51'0 0.0
2014-Dec-12 01:32N 43°59' E 009°51'0 0.0
2014-Dec-12 00:32N 43°59' E 009°51'0 0.0
2014-Dec-11 23:32N 43°59' E 009°51'0 0.0
2014-Dec-11 22:32N 43°59' E 009°51'0 0.0
2014-Dec-11 21:32N 43°59' E 009°51'0 0.0
2014-Dec-11 20:32N 43°59' E 009°51'0 0.0
2014-Dec-11 19:32N 43°59' E 009°51'0 0.1
2014-Dec-11 18:32N 43°59' E 009°51'0 0.0
2014-Dec-11 17:32N 43°59' E 009°51'0 0.1
2014-Dec-11 16:32N 43°59' E 009°51'1 1.4
2014-Dec-11 15:33N 43°58' E 009°51'9 9.0
2014-Dec-11 14:33N 43°49' E 009°51'1010.3
2014-Dec-11 13:33N 43°39' E 009°46'1010.3
2014-Dec-11 12:33N 43°29' E 009°44'1010.2
2014-Dec-11 11:33N 43°19' E 009°42'1010.3
2014-Dec-11 10:33N 43°08' E 009°41'  
2014-Dec-08 09:33N 38°25' E 015°35'1211.9
2014-Dec-08 08:33N 38°22' E 015°21'1312.5
2014-Dec-08 07:31N 38°20' E 015°04'4113.6
2014-Dec-08 04:32N 38°20' E 014°13'1414.0
2014-Dec-08 03:33N 38°20' E 013°55'1414.3
2014-Dec-08 02:34N 38°20' E 013°37'1414.0
2014-Dec-08 01:33N 38°20' E 013°19'1414.0
2014-Dec-08 00:33N 38°20' E 013°01'1414.5
2014-Dec-07 23:33N 38°20' E 012°43'  

Dump ship's entire track history